Terminal Aerodrome Forecast
Issued by NWS

Home | Current Version | Previous Version | Text Only | Print | Product List | Glossary On
Versions: 1 2 3 4 5 6 7 8 9 10 11 12 13 14 15 16
000
FTUS41 KBTV 061131
TAFMSS
TAF
KMSS 061131Z 0612/0712 23006KT P6SM SKC
     FM061700 23012G20KT P6SM FEW250
     FM070300 22009KT P6SM SCT100 BKN150
     FM070900 22013KT P6SM VCSH SCT025 OVC040=

USA.gov is the U.S. government's official web portal to all federal, state and local government web resources and services.